createdAt,value
2018-06-09T00:01:42.870Z,58.55
2018-06-09T00:04:09.828Z,57.69
2018-06-09T00:06:36.795Z,58.17
2018-06-09T00:09:06.111Z,57.98
2018-06-09T00:11:33.031Z,58.38
2018-06-09T00:13:59.939Z,58.46
2018-06-09T00:16:26.823Z,59.37
2018-06-09T00:18:53.734Z,59.75
2018-06-09T00:21:20.630Z,59.01
2018-06-09T00:23:47.565Z,59.77
2018-06-09T00:26:14.471Z,59.81
2018-06-09T00:28:41.402Z,59.67
2018-06-09T00:31:08.299Z,59.98
2018-06-09T00:33:35.340Z,60.31
2018-06-09T00:36:02.248Z,61.07
2018-06-09T00:38:29.178Z,60.65
2018-06-09T00:40:56.092Z,60.50
2018-06-09T00:43:23.175Z,60.57
2018-06-09T00:45:50.087Z,60.48
2018-06-09T00:48:16.999Z,60.54
2018-06-09T00:50:43.920Z,60.60
2018-06-09T00:53:10.834Z,60.02
2018-06-09T00:55:37.807Z,60.39
2018-06-09T00:58:04.779Z,60.54
2018-06-09T01:00:31.922Z,60.06
2018-06-09T01:02:58.914Z,59.75
2018-06-09T01:05:25.843Z,59.56
2018-06-09T01:07:52.815Z,59.32
2018-06-09T01:10:19.723Z,58.96
2018-06-09T01:12:46.663Z,59.55
2018-06-09T01:15:13.619Z,59.34
2018-06-09T01:17:40.530Z,59.04
2018-06-09T01:20:07.447Z,59.73
2018-06-09T01:22:34.519Z,59.75
2018-06-09T01:25:02.258Z,59.15
2018-06-09T01:27:29.207Z,58.97
2018-06-09T01:29:56.140Z,59.01
2018-06-09T01:32:23.072Z,59.23
2018-06-09T01:34:50.030Z,58.78
2018-06-09T01:37:16.930Z,59.37
2018-06-09T01:39:44.660Z,58.09
2018-06-09T01:42:11.559Z,58.31
2018-06-09T01:44:38.515Z,57.64
2018-06-09T01:47:05.435Z,57.30
2018-06-09T01:49:32.339Z,57.83
2018-06-09T01:51:59.262Z,58.06
2018-06-09T01:54:26.231Z,57.85
2018-06-09T01:56:53.136Z,57.18
2018-06-09T01:59:20.047Z,56.91
2018-06-09T02:01:46.942Z,56.81
2018-06-09T02:04:13.863Z,56.54
2018-06-09T02:06:40.771Z,56.55
2018-06-09T02:09:09.202Z,56.97
2018-06-09T02:11:36.203Z,57.08
2018-06-09T02:14:03.370Z,56.35
2018-06-09T02:16:30.386Z,56.08
2018-06-09T02:18:57.442Z,56.49
2018-06-09T02:21:24.860Z,55.28
2018-06-09T02:23:51.747Z,55.95
2018-06-09T02:26:18.771Z,55.90
2018-06-09T02:28:45.662Z,55.75
2018-06-09T02:31:12.646Z,55.80
2018-06-09T02:33:39.543Z,56.49
2018-06-09T02:36:06.595Z,55.77
2018-06-09T02:38:33.588Z,55.57
2018-06-09T02:41:00.488Z,55.67
2018-06-09T02:43:27.455Z,55.12
2018-06-09T02:45:54.634Z,55.56
2018-06-09T02:48:21.532Z,54.99
2018-06-09T02:50:48.526Z,54.47
2018-06-09T02:53:15.563Z,54.50
2018-06-09T02:55:42.481Z,53.78
2018-06-09T02:58:09.775Z,53.89
2018-06-09T03:00:36.695Z,54.15
2018-06-09T03:03:03.595Z,53.94
2018-06-09T03:05:30.601Z,54.22
2018-06-09T03:07:57.680Z,53.90
2018-06-09T03:10:24.675Z,53.97
2018-06-09T03:12:51.734Z,53.74
2018-06-09T03:15:18.675Z,54.21
2018-06-09T03:17:45.591Z,54.43
2018-06-09T03:20:12.491Z,54.18
2018-06-09T03:22:39.664Z,54.71
2018-06-09T03:25:06.596Z,54.83
2018-06-09T03:27:33.703Z,54.23
2018-06-09T03:30:00.614Z,54.57
2018-06-09T03:32:27.561Z,54.53
2018-06-09T03:34:54.607Z,54.70
2018-06-09T03:37:22.253Z,54.46
2018-06-09T03:39:49.176Z,54.26
2018-06-09T03:42:16.123Z,53.67
2018-06-09T03:44:43.043Z,53.51
2018-06-09T03:47:10.046Z,53.38
2018-06-09T03:49:36.950Z,53.10
2018-06-09T03:52:03.854Z,53.82
2018-06-09T03:54:30.748Z,53.15
2018-06-09T03:56:57.811Z,53.71
2018-06-09T03:59:24.729Z,54.07
2018-06-09T04:01:51.712Z,53.99
2018-06-09T04:04:18.649Z,54.21
2018-06-09T04:06:45.591Z,54.59
2018-06-09T04:09:12.519Z,54.36
2018-06-09T04:11:39.455Z,54.35
2018-06-09T04:14:06.519Z,53.90
2018-06-09T04:16:33.501Z,53.40
2018-06-09T04:19:00.456Z,53.87
2018-06-09T04:21:27.359Z,53.52
2018-06-09T04:23:54.278Z,53.54
2018-06-09T04:26:21.202Z,53.02
2018-06-09T04:28:48.126Z,53.42
2018-06-09T04:31:15.036Z,53.40
2018-06-09T04:33:41.971Z,53.33
2018-06-09T04:36:08.967Z,53.41
2018-06-09T04:38:35.951Z,52.74
2018-06-09T04:41:02.891Z,52.74
2018-06-09T04:43:29.838Z,52.91
2018-06-09T04:45:56.771Z,53.53
2018-06-09T04:48:23.642Z,53.24
2018-06-09T04:50:50.567Z,52.50
2018-06-09T04:53:17.558Z,52.46
2018-06-09T04:55:44.454Z,51.44
2018-06-09T04:58:11.375Z,51.22
2018-06-09T05:00:38.324Z,51.72
2018-06-09T05:03:05.543Z,51.14
2018-06-09T05:05:32.453Z,50.83
2018-06-09T05:07:59.359Z,51.08
2018-06-09T05:10:26.335Z,50.31
2018-06-09T05:12:53.282Z,50.36
2018-06-09T05:15:20.294Z,50.43
2018-06-09T05:17:47.237Z,50.68
2018-06-09T05:20:14.135Z,49.99
2018-06-09T05:22:41.257Z,50.17
2018-06-09T05:25:08.309Z,50.58
2018-06-09T05:27:35.242Z,50.28
2018-06-09T05:30:02.307Z,50.32
2018-06-09T05:32:29.230Z,50.92
2018-06-09T05:34:56.127Z,50.70
2018-06-09T05:37:23.095Z,50.56
2018-06-09T05:39:50.003Z,49.68
2018-06-09T05:42:16.914Z,50.50
2018-06-09T05:44:43.844Z,50.17
2018-06-09T05:47:10.760Z,49.56
2018-06-09T05:49:37.756Z,50.33
2018-06-09T05:52:04.660Z,50.75
2018-06-09T05:54:31.580Z,51.89
2018-06-09T05:56:58.545Z,52.06
2018-06-09T05:59:25.451Z,52.33
2018-06-09T06:01:52.384Z,52.57
2018-06-09T06:04:19.392Z,53.30
2018-06-09T06:06:46.423Z,54.83
2018-06-09T06:09:13.355Z,57.15
2018-06-09T06:11:40.287Z,58.93
2018-06-09T06:14:07.222Z,59.87
2018-06-09T06:16:34.183Z,59.95
2018-06-09T06:19:01.126Z,59.84
2018-06-09T06:21:28.102Z,59.21
2018-06-09T06:23:55.003Z,59.87
2018-06-09T06:26:21.891Z,58.99
2018-06-09T06:28:48.802Z,59.29
2018-06-09T06:31:15.826Z,59.53
2018-06-09T06:33:42.755Z,58.58
2018-06-09T06:36:09.653Z,58.76
2018-06-09T06:38:36.579Z,59.09
2018-06-09T06:41:03.475Z,58.22
2018-06-09T06:43:30.439Z,58.62
2018-06-09T06:45:58.046Z,58.13
2018-06-09T06:48:25.132Z,57.97
2018-06-09T06:50:52.044Z,57.97
2018-06-09T06:53:18.970Z,57.94
2018-06-09T06:55:45.875Z,58.81
2018-06-09T06:58:12.860Z,57.10
2018-06-09T07:00:39.787Z,56.79
2018-06-09T07:03:06.775Z,55.78
2018-06-09T07:05:33.750Z,56.19
2018-06-09T07:08:00.659Z,56.55
2018-06-09T07:10:27.560Z,56.26
2018-06-09T07:12:54.476Z,55.67
2018-06-09T07:15:21.497Z,55.45
2018-06-09T07:17:48.414Z,55.76
2018-06-09T07:20:15.343Z,55.35
2018-06-09T07:22:42.283Z,54.29
2018-06-09T07:25:09.500Z,52.81
2018-06-09T07:27:36.499Z,51.28
2018-06-09T07:30:03.847Z,50.64
2018-06-09T07:32:30.738Z,48.79
2018-06-09T07:34:57.623Z,48.47
2018-06-09T07:37:24.514Z,47.34
2018-06-09T07:39:51.427Z,46.64
2018-06-09T07:42:18.318Z,46.43
2018-06-09T07:44:45.246Z,46.14
2018-06-09T07:47:12.305Z,44.63
2018-06-09T07:49:39.695Z,44.72
2018-06-09T07:52:06.629Z,44.90
2018-06-09T07:54:33.543Z,43.65
2018-06-09T07:57:00.435Z,43.73
2018-06-09T07:59:27.367Z,42.50
2018-06-09T08:01:54.270Z,42.19
2018-06-09T08:04:21.191Z,41.63
2018-06-09T08:06:48.310Z,40.75
2018-06-09T08:09:15.262Z,41.39
2018-06-09T08:11:42.311Z,41.60
2018-06-09T08:14:09.248Z,41.16
2018-06-09T08:16:36.400Z,41.05
2018-06-09T08:19:03.295Z,41.51
2018-06-09T08:21:30.275Z,40.67
2018-06-09T08:23:57.191Z,40.70
2018-06-09T08:26:24.271Z,40.70
2018-06-09T08:28:51.175Z,40.01
2018-06-09T08:31:18.171Z,39.73
2018-06-09T08:33:45.159Z,38.80
2018-06-09T08:36:12.188Z,39.50
2018-06-09T08:38:39.083Z,38.74
2018-06-09T08:41:06.006Z,39.39
2018-06-09T08:43:32.903Z,39.29
2018-06-09T08:45:59.843Z,38.58
2018-06-09T08:48:26.756Z,37.86
2018-06-09T08:50:53.671Z,37.71
2018-06-09T08:53:20.620Z,37.44
2018-06-09T08:55:47.640Z,36.82
2018-06-09T08:58:14.555Z,37.07
2018-06-09T09:00:42.122Z,38.23
2018-06-09T09:03:09.165Z,37.88
2018-06-09T09:05:36.195Z,38.07
2018-06-09T09:08:03.351Z,36.46
2018-06-09T09:10:30.278Z,36.48
2018-06-09T09:12:57.187Z,36.58
2018-06-09T09:15:24.181Z,36.38
2018-06-09T09:17:51.203Z,35.35
2018-06-09T09:20:18.307Z,34.70
2018-06-09T09:22:45.243Z,33.70
2018-06-09T09:25:12.167Z,34.19
2018-06-09T09:27:39.243Z,34.60
2018-06-09T09:30:06.169Z,32.02
2018-06-09T09:32:33.344Z,32.57
2018-06-09T09:35:00.243Z,32.67
2018-06-09T09:37:27.273Z,31.95
2018-06-09T09:39:54.166Z,30.33
2018-06-09T09:42:21.147Z,30.88
2018-06-09T09:44:48.043Z,30.51
2018-06-09T09:47:14.943Z,31.34
2018-06-09T09:49:41.935Z,31.92
2018-06-09T09:52:09.046Z,32.03
2018-06-09T09:54:35.964Z,31.72
2018-06-09T09:57:03.061Z,31.13
2018-06-09T09:59:30.082Z,30.56
2018-06-09T10:01:57.015Z,30.88
2018-06-09T10:04:23.971Z,31.41
2018-06-09T10:06:51.020Z,30.57
2018-06-09T10:09:18.031Z,30.71
2018-06-09T10:11:44.934Z,28.94
2018-06-09T10:14:11.897Z,29.04
2018-06-09T10:16:38.852Z,30.05
2018-06-09T10:19:05.769Z,30.25
2018-06-09T10:21:32.743Z,29.58
2018-06-09T10:23:59.647Z,29.54
2018-06-09T10:26:26.627Z,30.63
2018-06-09T10:28:53.547Z,31.03
2018-06-09T10:31:20.497Z,30.82
2018-06-09T10:33:47.550Z,30.42
2018-06-09T10:36:14.494Z,30.35
2018-06-09T10:38:41.436Z,31.05
2018-06-09T10:41:09.407Z,31.79
2018-06-09T10:43:36.325Z,31.42
2018-06-09T10:46:03.699Z,30.85
2018-06-09T10:48:30.615Z,30.21
2018-06-09T10:50:57.540Z,30.93
2018-06-09T10:53:24.503Z,30.50
2018-06-09T10:55:51.423Z,30.90
2018-06-09T10:58:18.524Z,31.05
2018-06-09T11:00:45.490Z,30.55
2018-06-09T11:03:12.485Z,31.09
2018-06-09T11:05:39.404Z,31.33
2018-06-09T11:08:06.355Z,29.79
2018-06-09T11:10:33.371Z,29.63
2018-06-09T11:13:00.316Z,29.23
2018-06-09T11:15:27.215Z,28.66
2018-06-09T11:17:54.171Z,28.67
2018-06-09T11:20:21.096Z,29.23
2018-06-09T11:22:48.019Z,29.12
2018-06-09T11:25:14.923Z,28.92
2018-06-09T11:27:41.854Z,27.99
2018-06-09T11:30:08.862Z,28.03
2018-06-09T11:32:35.787Z,28.63
2018-06-09T11:35:02.763Z,28.48
2018-06-09T11:37:29.715Z,28.88
2018-06-09T11:39:56.616Z,28.54
2018-06-09T11:42:23.551Z,29.17
2018-06-09T11:44:50.462Z,28.54
2018-06-09T11:47:17.572Z,28.25
2018-06-09T11:49:44.503Z,27.95
2018-06-09T11:52:11.479Z,27.04
2018-06-09T11:54:38.434Z,28.14
2018-06-09T11:57:05.383Z,27.64
2018-06-09T11:59:32.339Z,26.99
2018-06-09T12:01:59.347Z,27.89
2018-06-09T12:04:26.376Z,26.89
2018-06-09T12:06:53.312Z,26.87
2018-06-09T12:09:20.251Z,27.64
2018-06-09T12:11:47.161Z,27.26
2018-06-09T12:14:14.086Z,26.79
2018-06-09T12:16:40.999Z,27.59
2018-06-09T12:19:07.945Z,27.87
2018-06-09T12:21:34.855Z,27.89
2018-06-09T12:24:01.809Z,27.72
2018-06-09T12:26:28.835Z,27.14
2018-06-09T12:28:55.847Z,27.36
2018-06-09T12:31:22.864Z,26.89
2018-06-09T12:33:49.798Z,26.45
2018-06-09T12:36:16.699Z,26.67
2018-06-09T12:38:43.618Z,26.39
2018-06-09T12:41:10.521Z,26.58
2018-06-09T12:43:37.447Z,26.73
2018-06-09T12:46:04.441Z,26.65
2018-06-09T12:48:31.392Z,26.57
2018-06-09T12:50:58.275Z,26.81
2018-06-09T12:53:25.248Z,26.82
2018-06-09T12:55:52.216Z,25.38
2018-06-09T12:58:19.167Z,25.29
2018-06-09T13:00:46.136Z,25.10
2018-06-09T13:03:13.060Z,25.46
2018-06-09T13:05:39.991Z,25.70
2018-06-09T13:08:07.167Z,24.99
2018-06-09T13:10:34.079Z,25.33
2018-06-09T13:13:00.987Z,24.72
2018-06-09T13:15:27.897Z,24.63
2018-06-09T13:17:54.958Z,26.00
2018-06-09T13:20:21.906Z,25.22
2018-06-09T13:22:48.859Z,25.65
2018-06-09T13:25:15.759Z,26.16
2018-06-09T13:27:42.684Z,26.31
2018-06-09T13:30:09.620Z,27.30
2018-06-09T13:32:36.521Z,25.94
2018-06-09T13:35:03.775Z,25.91
2018-06-09T13:37:30.695Z,26.78
2018-06-09T13:39:57.615Z,25.88
2018-06-09T13:42:24.531Z,25.69
2018-06-09T13:44:51.483Z,26.46
2018-06-09T13:47:18.385Z,26.39
2018-06-09T13:49:45.311Z,26.43
2018-06-09T13:52:12.215Z,26.59
2018-06-09T13:54:39.227Z,27.51
2018-06-09T13:57:06.102Z,26.44
2018-06-09T13:59:33.129Z,27.67
2018-06-09T14:02:00.044Z,27.90
2018-06-09T14:04:27.011Z,26.80
2018-06-09T14:06:53.926Z,27.18
2018-06-09T14:09:20.839Z,27.72
2018-06-09T14:11:47.760Z,28.20
2018-06-09T14:14:14.690Z,28.74
2018-06-09T14:16:41.631Z,28.51
2018-06-09T14:19:08.603Z,28.61
2018-06-09T14:21:35.574Z,29.14
2018-06-09T14:24:02.529Z,28.74
2018-06-09T14:26:29.443Z,28.71
2018-06-09T14:28:56.362Z,29.37
2018-06-09T14:31:23.275Z,29.72
2018-06-09T14:33:50.181Z,30.17
2018-06-09T14:36:17.106Z,30.15
2018-06-09T14:38:44.065Z,30.18
2018-06-09T14:41:10.971Z,30.42
2018-06-09T14:43:37.866Z,30.79
2018-06-09T14:46:04.856Z,31.31
2018-06-09T14:48:31.754Z,31.05
2018-06-09T14:50:58.743Z,31.25
2018-06-09T14:53:25.898Z,30.88
2018-06-09T14:55:52.831Z,30.67
2018-06-09T14:58:19.747Z,30.96
2018-06-09T15:00:46.680Z,31.30
2018-06-09T15:03:13.587Z,30.84
2018-06-09T15:05:40.541Z,30.34
2018-06-09T15:08:07.439Z,30.38
2018-06-09T15:10:34.366Z,30.97
2018-06-09T15:13:01.395Z,30.94
2018-06-09T15:15:28.320Z,30.62
2018-06-09T15:17:55.219Z,30.95
2018-06-09T15:20:22.347Z,31.10
2018-06-09T15:22:49.254Z,31.50
2018-06-09T15:25:16.171Z,31.83
2018-06-09T15:27:43.072Z,32.03
2018-06-09T15:30:09.997Z,32.19
2018-06-09T15:32:36.890Z,32.13
2018-06-09T15:35:03.823Z,32.44
2018-06-09T15:37:30.743Z,32.22
2018-06-09T15:39:57.667Z,31.73
2018-06-09T15:42:24.562Z,31.99
2018-06-09T15:44:51.507Z,31.37
2018-06-09T15:47:18.551Z,31.85
2018-06-09T15:49:45.463Z,31.85
2018-06-09T15:52:12.387Z,32.17
2018-06-09T15:54:39.287Z,31.55
2018-06-09T15:57:06.202Z,32.02
2018-06-09T15:59:33.139Z,32.27
2018-06-09T16:02:00.092Z,32.16
2018-06-09T16:04:27.032Z,32.19
2018-06-09T16:06:53.979Z,32.15
2018-06-09T16:09:20.891Z,31.48
2018-06-09T16:11:47.819Z,31.17
2018-06-09T16:14:14.727Z,31.21
2018-06-09T16:16:41.647Z,31.66
2018-06-09T16:19:08.671Z,31.39
2018-06-09T16:21:35.743Z,31.12
2018-06-09T16:24:02.775Z,31.25
2018-06-09T16:26:29.699Z,30.84
2018-06-09T16:28:56.609Z,30.88
2018-06-09T16:31:23.547Z,31.04
2018-06-09T16:33:50.443Z,31.36
2018-06-09T16:36:17.364Z,31.17
2018-06-09T16:38:44.282Z,31.25
2018-06-09T16:41:11.207Z,31.12
2018-06-09T16:43:38.210Z,30.94
2018-06-09T16:46:05.170Z,30.70
2018-06-09T16:48:32.077Z,30.85
2018-06-09T16:50:58.995Z,30.86
2018-06-09T16:53:25.906Z,30.52
2018-06-09T16:55:52.822Z,30.66
2018-06-09T16:58:19.727Z,31.05
2018-06-09T17:00:46.767Z,31.10
2018-06-09T17:03:13.914Z,30.62
2018-06-09T17:05:40.835Z,30.84
2018-06-09T17:08:07.744Z,31.00
2018-06-09T17:10:34.735Z,31.00
2018-06-09T17:13:01.847Z,30.89
2018-06-09T17:15:28.751Z,30.87
2018-06-09T17:17:55.819Z,30.50
2018-06-09T17:20:22.728Z,30.20
2018-06-09T17:22:49.703Z,30.45
2018-06-09T17:25:16.611Z,30.64
2018-06-09T17:27:43.550Z,30.69
2018-06-09T17:30:10.447Z,30.79
2018-06-09T17:32:37.403Z,29.83
2018-06-09T17:35:04.574Z,30.13
2018-06-09T17:37:31.511Z,29.71
2018-06-09T17:39:58.539Z,30.23
2018-06-09T17:42:25.495Z,29.49
2018-06-09T17:44:52.467Z,29.45
2018-06-09T17:47:19.396Z,29.72
2018-06-09T17:49:46.379Z,28.77
2018-06-09T17:52:13.379Z,28.62
2018-06-09T17:54:40.279Z,28.79
2018-06-09T17:57:07.210Z,29.06
2018-06-09T17:59:34.183Z,28.39
2018-06-09T18:02:01.131Z,28.24
2018-06-09T18:04:28.040Z,28.43
2018-06-09T18:06:55.042Z,28.64
2018-06-09T18:09:21.960Z,28.82
2018-06-09T18:11:48.870Z,28.62
2018-06-09T18:14:15.850Z,29.24
2018-06-09T18:16:42.879Z,29.17
2018-06-09T18:19:09.834Z,28.84
2018-06-09T18:21:36.757Z,28.70
2018-06-09T18:24:03.800Z,28.80
2018-06-09T18:26:30.827Z,28.91
2018-06-09T18:28:57.783Z,29.23
2018-06-09T18:31:24.687Z,29.38
2018-06-09T18:33:51.752Z,29.65
2018-06-09T18:36:18.620Z,29.58
2018-06-09T18:38:45.811Z,29.82
2018-06-09T18:41:12.719Z,29.96
2018-06-09T18:43:39.618Z,30.47
2018-06-09T18:46:06.619Z,30.74
2018-06-09T18:48:33.531Z,30.66
2018-06-09T18:51:00.438Z,30.82
2018-06-09T18:53:27.356Z,31.17
2018-06-09T18:55:54.252Z,30.67
2018-06-09T18:58:21.183Z,31.81
2018-06-09T19:00:48.092Z,31.75
2018-06-09T19:03:15.031Z,31.98
2018-06-09T19:05:41.931Z,32.37
2018-06-09T19:08:08.991Z,31.87
2018-06-09T19:10:35.943Z,32.71
2018-06-09T19:13:02.943Z,32.14
2018-06-09T19:15:29.863Z,32.54
2018-06-09T19:17:56.967Z,32.45
2018-06-09T19:20:23.923Z,32.88
2018-06-09T19:22:50.883Z,33.27
2018-06-09T19:25:17.855Z,33.23
2018-06-09T19:27:44.755Z,33.64
2018-06-09T19:30:11.815Z,33.34
2018-06-09T19:32:38.755Z,33.22
2018-06-09T19:35:05.650Z,33.37
2018-06-09T19:37:32.575Z,34.03
2018-06-09T19:39:59.462Z,33.54
2018-06-09T19:42:26.407Z,33.80
2018-06-09T19:44:53.324Z,33.96
2018-06-09T19:47:20.262Z,34.10
2018-06-09T19:49:47.184Z,34.85
2018-06-09T19:52:14.095Z,34.39
2018-06-09T19:54:41.012Z,34.40
2018-06-09T19:57:07.903Z,34.44
2018-06-09T19:59:35.214Z,34.08
2018-06-09T20:02:02.219Z,34.67
2018-06-09T20:04:29.086Z,34.34
2018-06-09T20:06:55.978Z,34.63
2018-06-09T20:09:22.995Z,35.01
2018-06-09T20:11:49.906Z,34.21
2018-06-09T20:14:16.842Z,34.29
2018-06-09T20:16:43.757Z,34.49
2018-06-09T20:19:10.667Z,35.12
2018-06-09T20:21:37.567Z,34.52
2018-06-09T20:24:04.519Z,34.95
2018-06-09T20:26:31.415Z,34.45
2018-06-09T20:28:58.538Z,34.42
2018-06-09T20:31:25.467Z,35.22
2018-06-09T20:33:52.604Z,34.79
2018-06-09T20:36:19.531Z,35.20
2018-06-09T20:38:46.468Z,34.38
2018-06-09T20:41:13.379Z,34.59
2018-06-09T20:43:40.311Z,34.47
2018-06-09T20:46:07.496Z,34.26
2018-06-09T20:48:34.359Z,35.23
2018-06-09T20:51:01.359Z,35.45
2018-06-09T20:53:28.403Z,35.05
2018-06-09T20:55:55.355Z,35.32
2018-06-09T20:58:22.462Z,35.49
2018-06-09T21:00:49.679Z,35.96
2018-06-09T21:03:16.651Z,36.05
2018-06-09T21:05:43.732Z,36.43
2018-06-09T21:08:10.599Z,36.03
2018-06-09T21:10:37.527Z,36.33
2018-06-09T21:13:04.458Z,37.47
2018-06-09T21:15:31.365Z,36.46
2018-06-09T21:17:58.274Z,36.68
2018-06-09T21:20:25.201Z,36.02
2018-06-09T21:22:52.132Z,36.28
2018-06-09T21:25:19.038Z,35.99
2018-06-09T21:27:51.755Z,36.84
2018-06-09T21:30:24.323Z,37.44
2018-06-09T21:35:03.571Z,36.89
2018-06-09T21:37:39.560Z,37.68
2018-06-09T21:40:13.383Z,37.60
2018-06-09T21:42:48.487Z,38.16
2018-06-09T21:45:21.203Z,37.35
2018-06-09T21:47:48.261Z,37.47
2018-06-09T21:50:15.307Z,37.40
2018-06-09T21:52:42.215Z,37.62
2018-06-09T21:55:09.163Z,37.49
2018-06-09T21:57:36.160Z,37.06
2018-06-09T22:00:04.882Z,37.75
2018-06-09T22:02:31.775Z,37.77
2018-06-09T22:04:58.747Z,38.00
2018-06-09T22:07:25.657Z,38.17
2018-06-09T22:09:52.567Z,37.89
2018-06-09T22:12:19.641Z,37.41
2018-06-09T22:14:46.664Z,37.59
2018-06-09T22:17:13.703Z,38.35
2018-06-09T22:19:40.700Z,38.42
2018-06-09T22:22:07.845Z,37.96
2018-06-09T22:24:34.756Z,38.39
2018-06-09T22:27:01.675Z,38.06
2018-06-09T22:29:28.595Z,38.31
2018-06-09T22:31:55.509Z,38.90
2018-06-09T22:34:22.418Z,37.91
2018-06-09T22:36:49.335Z,38.45
2018-06-09T22:39:16.227Z,38.89
2018-06-09T22:41:43.148Z,38.06
2018-06-09T22:44:10.141Z,38.94
2018-06-09T22:46:37.298Z,38.68
2018-06-09T22:49:04.238Z,39.11
2018-06-09T22:51:31.171Z,38.89
2018-06-09T22:53:58.075Z,38.61
2018-06-09T22:56:24.991Z,38.80
2018-06-09T22:58:51.905Z,38.99
2018-06-09T23:01:18.919Z,38.69
2018-06-09T23:03:45.890Z,38.85
2018-06-09T23:06:12.787Z,39.47
2018-06-09T23:08:39.765Z,39.74
2018-06-09T23:11:06.666Z,39.46
2018-06-09T23:13:33.635Z,40.33
2018-06-09T23:16:00.552Z,39.65
2018-06-09T23:18:27.448Z,39.88
2018-06-09T23:20:54.411Z,40.36
2018-06-09T23:23:21.431Z,40.12
2018-06-09T23:25:48.426Z,40.29
2018-06-09T23:28:15.354Z,40.57
2018-06-09T23:30:43.224Z,41.39
2018-06-09T23:33:10.105Z,41.17
2018-06-09T23:35:37.019Z,41.81
2018-06-09T23:38:03.998Z,41.95
2018-06-09T23:40:30.912Z,41.45
2018-06-09T23:42:57.822Z,42.19
2018-06-09T23:45:24.803Z,42.25
2018-06-09T23:47:51.715Z,42.86
2018-06-09T23:50:18.682Z,42.73
2018-06-09T23:52:45.614Z,43.19
2018-06-09T23:55:12.510Z,43.04
2018-06-09T23:57:39.581Z,43.26
